createdAt,value
2023-03-26T00:01:29.889Z,97.50
2023-03-26T00:03:58.214Z,97.10
2023-03-26T00:06:30.995Z,96.90
2023-03-26T00:08:59.081Z,96.70
2023-03-26T00:11:27.733Z,97.40
2023-03-26T00:13:58.054Z,97.60
2023-03-26T00:16:29.274Z,98.40
2023-03-26T00:18:58.020Z,99.30
2023-03-26T00:21:29.489Z,99.50
2023-03-26T00:24:01.224Z,99.70
2023-03-26T00:26:31.322Z,99.50
2023-03-26T00:28:58.511Z,99.70
2023-03-26T00:31:25.997Z,99.90
2023-03-26T00:33:56.383Z,99.90
2023-03-26T00:36:25.933Z,99.90
2023-03-26T00:38:54.133Z,99.90
2023-03-26T00:41:25.280Z,99.90
2023-03-26T00:43:56.551Z,99.90
2023-03-26T00:46:24.975Z,99.90
2023-03-26T00:48:52.395Z,99.90
2023-03-26T00:51:20.978Z,99.90
2023-03-26T00:53:49.196Z,99.90
2023-03-26T00:56:17.064Z,99.90
2023-03-26T00:58:44.563Z,99.90
2023-03-26T01:01:14.748Z,99.90
2023-03-26T01:03:50.182Z,99.90
2023-03-26T01:06:33.224Z,99.90
2023-03-26T01:09:04.551Z,99.90
2023-03-26T01:11:34.034Z,99.90
2023-03-26T01:14:11.688Z,99.90
2023-03-26T01:16:47.586Z,99.90
2023-03-26T01:19:21.449Z,99.90
2023-03-26T01:21:48.720Z,99.90
2023-03-26T01:24:15.797Z,99.90
2023-03-26T01:27:24.730Z,99.70
2023-03-26T01:30:13.388Z,99.50
2023-03-26T01:33:02.614Z,99.40
2023-03-26T01:35:34.885Z,99.30
2023-03-26T01:38:23.487Z,99.10
2023-03-26T01:41:11.287Z,98.60
2023-03-26T01:43:44.705Z,98.60
2023-03-26T01:46:12.035Z,98.30
2023-03-26T01:48:41.398Z,97.50
2023-03-26T01:51:09.454Z,97.20
2023-03-26T01:53:40.668Z,97.20
2023-03-26T01:56:32.399Z,97.00
2023-03-26T01:59:08.710Z,96.00
2023-03-26T02:01:46.450Z,96.20
2023-03-26T02:04:55.153Z,96.00
2023-03-26T02:07:40.739Z,95.00
2023-03-26T02:10:30.009Z,95.20
2023-03-26T02:12:58.026Z,94.50
2023-03-26T02:15:25.663Z,94.40
2023-03-26T02:17:53.583Z,95.70
2023-03-26T02:20:21.158Z,96.90
2023-03-26T02:22:48.480Z,96.90
2023-03-26T02:25:19.088Z,95.40
2023-03-26T02:27:47.633Z,95.80
2023-03-26T02:30:20.776Z,96.60
2023-03-26T02:32:52.574Z,96.70
2023-03-26T02:35:22.208Z,97.80
2023-03-26T02:37:53.675Z,98.50
2023-03-26T02:40:22.611Z,99.60
2023-03-26T02:42:51.452Z,99.90
2023-03-26T02:45:19.098Z,99.90
2023-03-26T02:48:09.345Z,99.90
2023-03-26T02:50:43.009Z,99.90
2023-03-26T02:53:30.007Z,99.90
2023-03-26T02:56:17.008Z,99.90
2023-03-26T02:58:58.189Z,99.90
2023-03-26T03:01:25.950Z,99.90
2023-03-26T03:03:55.452Z,99.90
2023-03-26T03:06:35.400Z,99.80
2023-03-26T03:09:05.268Z,99.90
2023-03-26T03:11:39.752Z,99.60
2023-03-26T03:14:08.869Z,99.90
2023-03-26T03:16:38.955Z,99.90
2023-03-26T03:19:10.140Z,99.90
2023-03-26T03:21:38.482Z,99.90
2023-03-26T03:24:06.940Z,99.90
2023-03-26T03:26:38.465Z,99.90
2023-03-26T03:29:25.073Z,99.90
2023-03-26T03:31:52.966Z,99.90
2023-03-26T03:34:40.421Z,99.90
2023-03-26T03:37:07.948Z,99.90
2023-03-26T03:39:43.228Z,99.90
2023-03-26T03:42:11.943Z,99.90
2023-03-26T03:44:39.739Z,99.90
2023-03-26T03:47:17.066Z,99.90
2023-03-26T03:49:44.469Z,99.90
2023-03-26T03:52:11.722Z,99.90
2023-03-26T03:54:42.180Z,99.90
2023-03-26T03:57:16.177Z,99.90
2023-03-26T03:59:52.949Z,99.90
2023-03-26T04:02:30.490Z,99.90
2023-03-26T04:05:03.114Z,99.90
2023-03-26T04:07:31.302Z,99.90
2023-03-26T04:10:08.630Z,99.90
2023-03-26T04:12:56.206Z,99.90
2023-03-26T04:15:39.864Z,99.90
2023-03-26T04:18:10.639Z,99.10
2023-03-26T04:20:46.854Z,97.00
2023-03-26T04:23:21.684Z,98.20
2023-03-26T04:25:54.316Z,97.80
2023-03-26T04:28:34.024Z,98.40
2023-03-26T04:31:24.951Z,99.50
2023-03-26T04:33:57.612Z,99.90
2023-03-26T04:36:28.716Z,99.90
2023-03-26T04:38:58.552Z,99.90
2023-03-26T04:41:46.356Z,99.90
2023-03-26T04:44:23.246Z,99.90
2023-03-26T04:47:04.036Z,99.90
2023-03-26T04:49:37.695Z,99.90
2023-03-26T04:52:04.995Z,99.90
2023-03-26T04:54:52.168Z,99.90
2023-03-26T04:57:24.577Z,99.90
2023-03-26T05:00:01.360Z,99.90
2023-03-26T05:02:32.873Z,99.90
2023-03-26T05:05:03.087Z,99.90
2023-03-26T05:07:33.503Z,99.90
2023-03-26T05:10:03.855Z,99.90
2023-03-26T05:12:49.226Z,99.90
2023-03-26T05:15:26.420Z,99.90
2023-03-26T05:17:55.669Z,99.90
2023-03-26T05:20:30.424Z,99.90
2023-03-26T05:22:57.944Z,99.90
2023-03-26T05:25:30.729Z,99.90
2023-03-26T05:27:59.966Z,99.90
2023-03-26T05:30:34.488Z,99.90
2023-03-26T05:33:04.543Z,99.90
2023-03-26T05:35:40.979Z,99.90
2023-03-26T05:38:09.642Z,99.90
2023-03-26T05:40:37.016Z,98.90
2023-03-26T05:43:06.583Z,97.40
2023-03-26T05:45:40.851Z,96.40
2023-03-26T05:48:18.699Z,97.80
2023-03-26T05:50:48.098Z,98.70
2023-03-26T05:53:15.895Z,96.60
2023-03-26T05:56:02.306Z,98.30
2023-03-26T05:58:47.713Z,98.70
2023-03-26T06:01:43.062Z,98.60
2023-03-26T06:04:16.308Z,99.20
2023-03-26T06:07:04.075Z,99.90
2023-03-26T06:09:31.781Z,99.90
2023-03-26T06:11:59.346Z,99.90
2023-03-26T06:14:29.530Z,99.90
2023-03-26T06:17:19.446Z,99.90
2023-03-26T06:20:09.571Z,99.90
2023-03-26T06:22:42.779Z,99.90
2023-03-26T06:25:19.207Z,99.90
2023-03-26T06:28:12.712Z,99.90
2023-03-26T06:30:42.638Z,99.90
2023-03-26T06:33:33.077Z,99.90
2023-03-26T06:36:01.177Z,99.90
2023-03-26T06:38:28.274Z,99.90
2023-03-26T06:41:02.876Z,99.90
2023-03-26T06:43:34.012Z,99.90
2023-03-26T06:46:21.745Z,99.90
2023-03-26T06:49:07.877Z,99.90
2023-03-26T06:52:03.227Z,99.90
2023-03-26T06:54:39.341Z,99.90
2023-03-26T06:57:25.312Z,99.90
2023-03-26T07:00:13.651Z,99.90
2023-03-26T07:02:59.377Z,99.90
2023-03-26T07:05:44.922Z,99.90
2023-03-26T07:08:44.415Z,99.90
2023-03-26T07:11:34.548Z,99.90
2023-03-26T07:14:20.771Z,99.90
2023-03-26T07:16:48.003Z,99.90
2023-03-26T07:19:41.878Z,99.90
2023-03-26T07:22:15.034Z,99.90
2023-03-26T07:25:13.815Z,99.90
2023-03-26T07:28:29.499Z,99.90
2023-03-26T07:31:39.858Z,99.90
2023-03-26T07:35:12.244Z,99.90
2023-03-26T07:37:59.505Z,99.90
2023-03-26T07:40:47.942Z,99.90
2023-03-26T07:44:14.098Z,99.90
2023-03-26T07:46:48.228Z,99.90
2023-03-26T07:49:39.755Z,99.90
2023-03-26T07:52:23.047Z,99.90
2023-03-26T07:55:17.085Z,99.90
2023-03-26T07:58:30.964Z,99.90
2023-03-26T08:01:41.247Z,99.90
2023-03-26T08:04:29.903Z,99.90
2023-03-26T08:07:31.333Z,99.90
2023-03-26T08:10:33.724Z,99.90
2023-03-26T08:13:22.414Z,99.90
2023-03-26T08:16:08.284Z,99.90
2023-03-26T08:18:39.289Z,99.90
2023-03-26T08:21:33.780Z,99.90
2023-03-26T08:24:32.788Z,99.90
2023-03-26T08:27:03.726Z,99.90
2023-03-26T08:29:45.340Z,99.90
2023-03-26T08:32:19.120Z,99.90
2023-03-26T08:34:46.987Z,99.90
2023-03-26T08:37:14.717Z,99.90
2023-03-26T08:43:09.564Z,99.90
2023-03-26T08:46:17.395Z,99.90
2023-03-26T08:49:13.803Z,99.90
2023-03-26T08:52:11.003Z,99.90
2023-03-26T08:55:37.936Z,99.90
2023-03-26T08:59:00.865Z,99.90
2023-03-26T09:01:59.910Z,99.90
2023-03-26T09:04:47.390Z,99.90
2023-03-26T09:07:59.771Z,99.90
2023-03-26T09:10:45.028Z,99.90
2023-03-26T09:13:28.558Z,99.90
2023-03-26T09:16:21.005Z,99.90
2023-03-26T09:19:02.428Z,99.90
2023-03-26T09:21:54.945Z,99.90
2023-03-26T09:24:57.238Z,99.70
2023-03-26T09:28:09.990Z,99.60
2023-03-26T09:31:16.166Z,99.90
2023-03-26T09:34:31.636Z,99.90
2023-03-26T09:37:15.067Z,99.90
2023-03-26T09:40:05.502Z,98.90
2023-03-26T09:42:53.856Z,95.60
2023-03-26T09:45:41.931Z,95.40
2023-03-26T09:48:38.020Z,99.20
2023-03-26T09:51:18.074Z,99.90
2023-03-26T09:54:01.195Z,99.90
2023-03-26T09:56:49.949Z,99.10
2023-03-26T09:59:23.087Z,98.40
2023-03-26T10:02:00.434Z,99.10
2023-03-26T10:04:31.998Z,99.90
2023-03-26T10:07:39.036Z,99.90
2023-03-26T10:10:18.317Z,99.90
2023-03-26T10:13:14.889Z,99.90
2023-03-26T10:16:30.046Z,99.30
2023-03-26T10:19:09.092Z,97.00
2023-03-26T10:21:45.474Z,89.90
2023-03-26T10:24:28.087Z,92.50
2023-03-26T10:27:18.542Z,89.10
2023-03-26T10:30:00.639Z,87.50
2023-03-26T10:32:47.030Z,87.70
2023-03-26T10:35:41.899Z,88.90
2023-03-26T10:38:47.007Z,80.50
2023-03-26T10:41:39.389Z,82.70
2023-03-26T10:44:45.451Z,89.70
2023-03-26T10:47:34.752Z,88.30
2023-03-26T10:58:49.706Z,89.60
2023-03-26T11:01:40.117Z,87.00
2023-03-26T11:04:25.980Z,79.90
2023-03-26T11:07:06.986Z,83.10
2023-03-26T11:09:56.001Z,83.30
2023-03-26T11:12:32.182Z,78.20
2023-03-26T11:15:21.508Z,78.90
2023-03-26T11:18:01.839Z,80.20
2023-03-26T11:21:19.950Z,80.60
2023-03-26T11:24:05.202Z,73.20
2023-03-26T11:26:56.427Z,82.10
2023-03-26T11:29:33.580Z,81.40
2023-03-26T11:32:03.351Z,78.00
2023-03-26T11:38:58.844Z,79.40
2023-03-26T11:41:34.182Z,64.90
2023-03-26T11:44:40.132Z,68.30
2023-03-26T11:47:10.578Z,69.30
2023-03-26T11:49:41.612Z,66.10
2023-03-26T11:52:12.137Z,70.70
2023-03-26T11:54:39.588Z,67.60
2023-03-26T11:57:13.241Z,64.70
2023-03-26T11:59:55.639Z,58.40
2023-03-26T12:02:38.452Z,51.70
2023-03-26T12:05:20.770Z,53.00
2023-03-26T12:07:59.288Z,55.60
2023-03-26T12:10:56.487Z,59.60
2023-03-26T12:13:42.609Z,57.50
2023-03-26T12:16:18.751Z,69.60
2023-03-26T12:18:47.364Z,63.50
2023-03-26T12:21:19.314Z,65.60
2023-03-26T12:24:01.384Z,69.20
2023-03-26T12:26:35.368Z,75.70
2023-03-26T12:29:13.271Z,85.50
2023-03-26T12:32:04.861Z,88.30
2023-03-26T12:34:36.633Z,93.40
2023-03-26T12:37:05.323Z,94.60
2023-03-26T12:40:07.551Z,92.60
2023-03-26T12:44:54.605Z,92.90
2023-03-26T12:45:41.795Z,92.60
2023-03-26T12:48:13.389Z,93.10
2023-03-26T12:51:08.423Z,95.60
2023-03-26T12:54:18.292Z,99.00
2023-03-26T12:57:12.202Z,91.70
2023-03-26T13:00:17.756Z,90.10
2023-03-26T13:02:51.629Z,84.80
2023-03-26T13:11:04.831Z,83.40
2023-03-26T13:14:10.751Z,87.30
2023-03-26T13:17:26.279Z,90.60
2023-03-26T13:20:16.149Z,90.10
2023-03-26T13:22:56.741Z,85.70
2023-03-26T13:25:41.659Z,80.60
2023-03-26T13:28:32.260Z,85.80
2023-03-26T13:31:07.092Z,78.40
2023-03-26T13:33:57.588Z,75.60
2023-03-26T13:36:55.618Z,79.70
2023-03-26T13:39:46.785Z,78.00
2023-03-26T13:42:31.869Z,76.60
2023-03-26T13:45:05.690Z,77.40
2023-03-26T13:48:01.383Z,69.60
2023-03-26T13:50:42.627Z,69.10
2023-03-26T13:53:24.305Z,70.50
2023-03-26T13:56:00.743Z,67.00
2023-03-26T13:59:49.058Z,66.40
2023-03-26T14:06:54.525Z,62.50
2023-03-26T14:09:46.044Z,65.60
2023-03-26T14:13:26.843Z,66.80
2023-03-26T14:20:03.033Z,65.60
2023-03-26T14:22:53.887Z,66.90
2023-03-26T14:26:45.268Z,62.30
2023-03-26T14:29:31.824Z,67.30
2023-03-26T14:32:40.180Z,59.80
2023-03-26T14:35:58.208Z,62.70
2023-03-26T14:38:44.088Z,60.70
2023-03-26T14:42:05.868Z,53.70
2023-03-26T14:45:03.128Z,58.80
2023-03-26T14:47:32.021Z,60.90
2023-03-26T14:50:37.734Z,59.80
2023-03-26T14:53:36.740Z,55.40
2023-03-26T14:56:57.890Z,57.40
2023-03-26T15:00:02.416Z,58.90
2023-03-26T15:02:54.460Z,52.20
2023-03-26T15:06:00.542Z,51.70
2023-03-26T15:09:08.917Z,54.40
2023-03-26T15:12:13.115Z,48.10
2023-03-26T15:15:25.022Z,51.40
2023-03-26T15:18:16.678Z,51.70
2023-03-26T15:21:46.416Z,47.40
2023-03-26T15:24:32.213Z,46.90
2023-03-26T15:27:37.553Z,46.00
2023-03-26T15:30:30.763Z,41.90
2023-03-26T15:33:26.647Z,41.50
2023-03-26T15:36:24.860Z,40.50
2023-03-26T15:39:15.847Z,41.70
2023-03-26T15:42:22.013Z,43.70
2023-03-26T15:45:09.686Z,39.10
2023-03-26T15:47:52.948Z,33.90
2023-03-26T15:50:36.761Z,38.10
2023-03-26T15:53:32.477Z,35.70
2023-03-26T15:56:31.413Z,36.40
2023-03-26T15:59:16.824Z,37.20
2023-03-26T16:02:36.952Z,38.10
2023-03-26T16:05:21.420Z,33.40
2023-03-26T16:08:19.191Z,35.40
2023-03-26T16:10:52.659Z,35.60
2023-03-26T16:13:31.608Z,37.20
2023-03-26T16:16:13.193Z,34.90
2023-03-26T16:18:48.764Z,35.20
2023-03-26T16:21:32.966Z,35.00
2023-03-26T16:24:03.754Z,34.00
2023-03-26T16:27:08.130Z,35.20
2023-03-26T16:30:15.999Z,30.90
2023-03-26T16:32:49.992Z,32.90
2023-03-26T16:35:18.176Z,30.10
2023-03-26T16:37:55.142Z,29.60
2023-03-26T16:40:50.476Z,29.00
2023-03-26T16:43:35.246Z,30.60
2023-03-26T16:46:26.523Z,30.70
2023-03-26T16:49:01.080Z,34.40
2023-03-26T16:51:52.232Z,28.20
2023-03-26T16:54:34.678Z,25.10
2023-03-26T16:57:22.890Z,25.90
2023-03-26T17:00:05.347Z,22.90
2023-03-26T17:02:40.920Z,22.60
2023-03-26T17:05:34.417Z,24.60
2023-03-26T17:08:37.852Z,23.70
2023-03-26T17:11:21.048Z,20.90
2023-03-26T17:14:19.937Z,22.10
2023-03-26T17:17:03.004Z,21.20
2023-03-26T17:19:35.164Z,17.30
2023-03-26T17:22:21.559Z,19.00
2023-03-26T17:25:08.789Z,15.30
2023-03-26T17:28:33.384Z,15.40
2023-03-26T17:31:04.771Z,16.60
2023-03-26T17:33:36.955Z,16.70
2023-03-26T17:36:13.491Z,18.10
2023-03-26T17:38:45.509Z,16.60
2023-03-26T17:41:32.292Z,18.80
2023-03-26T17:43:59.692Z,21.60
2023-03-26T17:46:38.563Z,18.10
2023-03-26T17:49:37.741Z,17.70
2023-03-26T17:52:19.120Z,17.70
2023-03-26T17:54:55.439Z,20.30
2023-03-26T17:57:40.314Z,18.60
2023-03-26T18:00:30.876Z,17.80
2023-03-26T18:02:59.965Z,18.80
2023-03-26T18:05:29.229Z,16.90
2023-03-26T18:08:19.831Z,18.10
2023-03-26T18:10:56.402Z,20.30
2023-03-26T18:13:48.706Z,20.10
2023-03-26T18:16:42.410Z,19.80
2023-03-26T18:19:22.309Z,21.40
2023-03-26T18:21:59.765Z,18.40
2023-03-26T18:24:37.665Z,19.10
2023-03-26T18:27:16.900Z,18.40
2023-03-26T18:29:48.537Z,17.80
2023-03-26T18:32:22.824Z,21.40
2023-03-26T18:34:57.195Z,20.20
2023-03-26T18:37:33.501Z,21.40
2023-03-26T18:40:12.870Z,22.70
2023-03-26T18:42:41.086Z,24.20
2023-03-26T18:45:10.459Z,24.80
2023-03-26T18:47:40.706Z,25.90
2023-03-26T18:50:13.758Z,23.80
2023-03-26T18:52:40.851Z,22.10
2023-03-26T18:55:13.801Z,23.00
2023-03-26T18:57:41.818Z,20.70
2023-03-26T19:00:21.077Z,21.60
2023-03-26T19:02:50.236Z,21.70
2023-03-26T19:05:17.773Z,20.60
2023-03-26T19:07:46.697Z,20.80
2023-03-26T19:10:22.344Z,21.30
2023-03-26T19:13:00.476Z,22.40
2023-03-26T19:15:28.500Z,24.00
2023-03-26T19:17:59.945Z,24.20
2023-03-26T19:20:29.634Z,25.10
2023-03-26T19:22:57.089Z,25.40
2023-03-26T19:25:29.576Z,25.80
2023-03-26T19:27:57.235Z,26.00
2023-03-26T19:30:35.070Z,26.10
2023-03-26T19:33:13.942Z,26.00
2023-03-26T19:35:42.391Z,27.30
2023-03-26T19:38:14.455Z,27.60
2023-03-26T19:40:42.321Z,29.00
2023-03-26T19:43:12.979Z,28.40
2023-03-26T19:48:45.929Z,29.00
2023-03-26T19:51:18.278Z,28.50
2023-03-26T19:51:26.423Z,31.10
2023-03-26T19:53:55.608Z,29.50
2023-03-26T19:56:23.268Z,29.30
2023-03-26T19:58:50.868Z,29.60
2023-03-26T20:01:28.742Z,28.70
2023-03-26T20:04:09.372Z,27.60
2023-03-26T20:09:26.742Z,29.20
2023-03-26T20:11:54.358Z,29.70
2023-03-26T20:14:25.915Z,29.30
2023-03-26T20:16:53.567Z,30.30
2023-03-26T20:19:21.183Z,28.60
2023-03-26T20:21:49.218Z,29.00
2023-03-26T20:24:17.889Z,27.90
2023-03-26T20:26:45.602Z,28.30
2023-03-26T20:29:13.221Z,29.30
2023-03-26T20:31:43.592Z,29.90
2023-03-26T20:34:18.115Z,29.20
2023-03-26T20:36:46.423Z,31.20
2023-03-26T20:39:13.776Z,30.40
2023-03-26T20:41:45.029Z,30.20
2023-03-26T20:44:15.715Z,29.90
2023-03-26T20:46:43.895Z,30.80
2023-03-26T20:49:11.383Z,31.00
2023-03-26T20:51:39.801Z,32.90
2023-03-26T20:54:07.965Z,33.10
2023-03-26T20:56:42.488Z,31.50
2023-03-26T20:59:14.937Z,31.30
2023-03-26T21:01:42.270Z,32.60
2023-03-26T21:04:10.070Z,30.90
2023-03-26T21:06:37.741Z,31.60
2023-03-26T21:09:05.203Z,31.40
2023-03-26T21:11:46.103Z,30.90
2023-03-26T21:14:18.762Z,31.00
2023-03-26T21:16:47.044Z,32.50
2023-03-26T21:19:14.956Z,32.50
2023-03-26T21:21:48.471Z,31.00
2023-03-26T21:24:33.287Z,34.10
2023-03-26T21:27:13.192Z,31.10
2023-03-26T21:29:40.801Z,32.50
2023-03-26T21:32:14.656Z,31.90
2023-03-26T21:34:55.764Z,32.90
2023-03-26T21:37:25.991Z,30.00
2023-03-26T21:39:53.347Z,31.20
2023-03-26T21:42:21.102Z,29.30
2023-03-26T21:44:48.766Z,30.80
2023-03-26T21:47:16.092Z,30.70
2023-03-26T21:49:43.465Z,32.00
2023-03-26T21:52:15.138Z,33.10
2023-03-26T21:54:43.470Z,30.20
2023-03-26T21:57:22.788Z,30.60
2023-03-26T21:59:59.772Z,31.00
2023-03-26T22:02:42.696Z,30.60
2023-03-26T22:05:17.605Z,29.90
2023-03-26T22:07:57.531Z,31.70
2023-03-26T22:10:24.986Z,29.60
2023-03-26T22:12:52.600Z,29.30
2023-03-26T22:15:20.342Z,29.80
2023-03-26T22:17:54.304Z,29.50
2023-03-26T22:20:24.914Z,29.50
2023-03-26T22:22:53.644Z,30.00
2023-03-26T22:25:22.044Z,30.30
2023-03-26T22:27:50.237Z,31.50
2023-03-26T22:30:18.258Z,30.80
2023-03-26T22:32:46.369Z,31.30
2023-03-26T22:35:14.643Z,31.20
2023-03-26T22:37:41.827Z,33.10
2023-03-26T22:40:10.483Z,33.80
2023-03-26T22:42:38.214Z,32.00
2023-03-26T22:45:05.833Z,33.70
2023-03-26T22:47:36.393Z,33.80
2023-03-26T22:50:04.236Z,33.00
2023-03-26T22:52:31.488Z,34.40
2023-03-26T22:54:58.623Z,34.60
2023-03-26T22:57:26.170Z,35.10
2023-03-26T22:59:53.513Z,34.30
2023-03-26T23:02:20.738Z,35.00
2023-03-26T23:04:48.915Z,34.60
2023-03-26T23:07:16.015Z,35.00
2023-03-26T23:09:45.804Z,34.80
2023-03-26T23:12:13.006Z,33.20
2023-03-26T23:14:41.594Z,33.20
2023-03-26T23:17:14.753Z,33.30
2023-03-26T23:19:44.003Z,33.90
2023-03-26T23:22:11.650Z,33.80
2023-03-26T23:24:39.798Z,30.00
2023-03-26T23:27:07.758Z,31.80
2023-03-26T23:29:35.832Z,32.70
2023-03-26T23:32:03.829Z,30.00
2023-03-26T23:34:52.075Z,30.50
2023-03-26T23:37:23.542Z,31.00
2023-03-26T23:39:51.621Z,31.80
2023-03-26T23:42:29.259Z,29.40
2023-03-26T23:44:57.672Z,29.80
2023-03-26T23:47:25.007Z,31.50
2023-03-26T23:49:52.080Z,27.80
2023-03-26T23:52:19.241Z,28.60
2023-03-26T23:54:47.473Z,29.40
2023-03-26T23:57:14.608Z,29.00
2023-03-26T23:59:42.155Z,28.50
